Time;durP1;ratioP1;P1;durP2;ratioP2;P2;SDS_P1;SDS_P2;PMS_P1;PMS_P2;Temp;Humidity;BMP_temperature;BMP_pressure;BME280_temperature;BME280_humidity;BME280_pressure;Samples;Min_cycle;Max_cycle;Signal;HPM_P1;HPM_P2
2022/01/29 00:01:53;;;;;;;65.33;56.10;;;;;;;;;;4956593;29;20030;-81
2022/01/29 00:04:18;;;;;;;69.90;56.53;;;;;;;;;;4987795;23;20047;-82
2022/01/29 00:06:44;;;;;;;68.57;56.00;;;;;;;;;;4987278;28;20019;-81
2022/01/29 00:09:13;;;;;;;69.35;55.05;;;;;;;;;;4991349;28;20023;-82
2022/01/29 00:11:39;;;;;;;65.82;56.45;;;;;;;;;;4995943;28;20030;-83
2022/01/29 00:14:06;;;;;;;65.53;55.40;;;;;;;;;;4993527;28;20027;-81
2022/01/29 00:16:31;;;;;;;;;;;;;;;;;;4988204;28;20023;-81
2022/01/29 00:18:56;;;;;;;65.85;55.50;;;;;;;;;;4986914;28;20004;-81
2022/01/29 00:21:21;;;;;;;70.40;58.03;;;;;;;;;;4995143;28;20114;-81
2022/01/29 00:23:46;;;;;;;63.93;55.93;;;;;;;;;;4993389;28;20026;-82
2022/01/29 00:26:12;;;;;;;70.97;58.93;;;;;;;;;;4991300;28;20077;-82
2022/01/29 00:28:37;;;;;;;68.77;56.10;;;;;;;;;;4986135;28;20030;-82
2022/01/29 00:31:03;;;;;;;64.80;57.57;;;;;;;;;;4993474;28;20037;-83
2022/01/29 00:33:28;;;;;;;75.00;58.33;;;;;;;;;;4992705;28;20070;-83
2022/01/29 00:35:54;;;;;;;63.80;56.70;;;;;;;;;;4989928;28;20023;-83
2022/01/29 00:38:19;;;;;;;72.27;58.57;;;;;;;;;;4985024;28;20022;-83
2022/01/29 00:40:45;;;;;;;71.20;57.90;;;;;;;;;;4992906;28;20023;-83
2022/01/29 00:43:10;;;;;;;;;;;;;;;;;;4994232;28;20021;-82
2022/01/29 00:45:36;;;;;;;80.53;60.38;;;;;;;;;;4994917;28;19914;-82
2022/01/29 00:48:01;;;;;;;69.70;58.20;;;;;;;;;;4981701;28;20018;-82
2022/01/29 00:50:26;;;;;;;79.43;60.80;;;;;;;;;;4995511;28;20034;-82
2022/01/29 00:52:51;;;;;;;77.90;62.93;;;;;;;;;;4978242;28;20018;-82
2022/01/29 00:55:16;;;;;;;75.18;61.25;;;;;;;;;;4980791;28;20030;-82
2022/01/29 00:57:43;;;;;;;79.60;61.23;;;;;;;;;;4994560;28;20145;-82
2022/01/29 01:00:10;;;;;;;71.68;59.97;;;;;;;;;;4994057;28;20034;-82
2022/01/29 01:02:35;;;;;;;85.78;61.42;;;;;;;;;;4993893;28;20039;-82
2022/01/29 01:05:00;;;;;;;80.63;62.57;;;;;;;;;;4990934;28;20030;-82
2022/01/29 01:07:26;;;;;;;86.63;63.20;;;;;;;;;;4976196;28;20126;-81
2022/01/29 01:09:51;;;;;;;86.10;63.13;;;;;;;;;;4994488;28;20015;-82
2022/01/29 01:12:16;;;;;;;83.37;61.20;;;;;;;;;;4995488;28;20502;-82
2022/01/29 01:14:41;;;;;;;80.33;63.10;;;;;;;;;;4982902;28;20026;-82
2022/01/29 01:17:07;;;;;;;83.40;63.07;;;;;;;;;;4987338;28;20025;-83
2022/01/29 01:19:32;;;;;;;77.80;62.10;;;;;;;;;;4995211;28;20033;-82
2022/01/29 01:21:58;;;;;;;89.87;64.27;;;;;;;;;;4980512;28;20019;-81
2022/01/29 01:24:23;;;;;;;91.90;66.00;;;;;;;;;;4990989;28;20023;-81
2022/01/29 01:26:49;;;;;;;91.67;65.63;;;;;;;;;;4990622;28;20014;-81
2022/01/29 01:29:15;;;;;;;89.00;66.35;;;;;;;;;;5016107;28;20252;-80
2022/01/29 01:31:43;;;;;;;90.07;64.93;;;;;;;;;;5016081;28;20103;-81
2022/01/29 01:34:08;;;;;;;104.70;67.88;;;;;;;;;;5014127;28;20011;-81
2022/01/29 01:36:39;;;;;;;89.50;67.73;;;;;;;;;;5015786;28;20022;-82
2022/01/29 01:39:08;;;;;;;87.90;67.57;;;;;;;;;;5012586;28;20008;-81
2022/01/29 01:41:39;;;;;;;93.80;68.45;;;;;;;;;;5012308;28;20059;-81
2022/01/29 01:44:04;;;;;;;93.10;65.50;;;;;;;;;;4996942;28;20022;-81
2022/01/29 01:46:30;;;;;;;97.03;69.00;;;;;;;;;;5008502;28;20111;-81
2022/01/29 01:48:55;;;;;;;108.77;71.53;;;;;;;;;;5009579;28;20090;-81
2022/01/29 01:51:21;;;;;;;95.20;69.33;;;;;;;;;;5015083;28;20170;-82
2022/01/29 01:53:46;;;;;;;104.03;70.40;;;;;;;;;;5013444;28;20019;-81
2022/01/29 01:56:12;;;;;;;95.32;69.50;;;;;;;;;;5010445;28;20050;-82
2022/01/29 01:58:37;;;;;;;93.40;68.70;;;;;;;;;;5006040;28;20021;-81
2022/01/29 02:01:02;;;;;;;96.03;67.87;;;;;;;;;;5014047;28;20102;-81
2022/01/29 02:03:28;;;;;;;114.87;73.10;;;;;;;;;;5002639;28;20040;-80
2022/01/29 02:05:53;;;;;;;107.70;73.00;;;;;;;;;;4973550;28;20082;-81
2022/01/29 02:08:18;;;;;;;106.33;71.30;;;;;;;;;;4969970;28;20472;-81
2022/01/29 02:10:46;;;;;;;115.90;74.37;;;;;;;;;;4993412;28;20472;-82
2022/01/29 02:13:11;;;;;;;119.25;75.63;;;;;;;;;;4992757;28;20046;-82
2022/01/29 02:15:36;;;;;;;110.30;74.43;;;;;;;;;;4989360;28;20026;-82
2022/01/29 02:18:02;;;;;;;116.63;76.00;;;;;;;;;;4986098;28;20043;-82
2022/01/29 02:20:28;;;;;;;111.50;72.40;;;;;;;;;;4994401;28;20023;-80
2022/01/29 02:22:54;;;;;;;121.72;77.35;;;;;;;;;;4995074;28;20026;-81
2022/01/29 02:25:33;;;;;;;113.90;71.93;;;;;;;;;;4991564;28;20022;-81
2022/01/29 02:28:00;;;;;;;113.95;74.78;;;;;;;;;;4987352;28;20495;-81
2022/01/29 02:30:28;;;;;;;110.57;73.90;;;;;;;;;;4980461;28;20022;-82
2022/01/29 02:32:53;;;;;;;112.50;74.93;;;;;;;;;;4999012;28;20054;-80
2022/01/29 02:35:18;;;;;;;129.13;73.73;;;;;;;;;;4979147;28;20019;-80
2022/01/29 02:37:50;;;;;;;125.65;76.88;;;;;;;;;;4991702;28;20030;-81
2022/01/29 02:40:16;;;;;;;120.22;74.45;;;;;;;;;;4995722;28;20026;-80
2022/01/29 02:42:42;;;;;;;130.63;80.13;;;;;;;;;;4977991;28;20046;-80
2022/01/29 02:45:07;;;;;;;119.43;75.27;;;;;;;;;;4988969;28;20053;-80
2022/01/29 02:47:33;;;;;;;130.27;81.23;;;;;;;;;;4968308;28;20034;-82
2022/01/29 02:49:58;;;;;;;115.60;75.43;;;;;;;;;;4991922;28;20018;-81
2022/01/29 02:52:24;;;;;;;108.73;70.90;;;;;;;;;;4991824;28;20042;-81
2022/01/29 02:54:49;;;;;;;116.20;74.40;;;;;;;;;;4976541;28;20074;-82
2022/01/29 02:57:15;;;;;;;108.33;74.67;;;;;;;;;;4973838;28;20027;-82
2022/01/29 02:59:40;;;;;;;113.13;73.97;;;;;;;;;;4992278;28;20021;-82
2022/01/29 03:02:05;;;;;;;114.43;74.73;;;;;;;;;;4980250;28;20023;-82
2022/01/29 03:04:30;;;;;;;111.40;70.83;;;;;;;;;;4988792;28;20035;-82
2022/01/29 03:06:55;;;;;;;114.57;71.67;;;;;;;;;;4966801;28;20016;-82
2022/01/29 03:09:21;;;;;;;105.90;72.10;;;;;;;;;;4999649;28;20030;-81
2022/01/29 03:11:46;;;;;;;105.60;69.77;;;;;;;;;;5013395;28;20007;-81
2022/01/29 03:14:11;;;;;;;113.47;74.90;;;;;;;;;;5004998;28;20030;-81
2022/01/29 03:16:36;;;;;;;116.83;73.93;;;;;;;;;;4989825;28;20023;-82
2022/01/29 03:19:02;;;;;;;115.70;73.97;;;;;;;;;;4991935;28;20110;-82
2022/01/29 03:21:27;;;;;;;115.33;73.23;;;;;;;;;;4992554;28;20038;-82
2022/01/29 03:23:52;;;;;;;115.87;73.73;;;;;;;;;;4990541;28;20022;-81
2022/01/29 03:26:17;;;;;;;106.33;69.77;;;;;;;;;;4972666;28;20074;-82
2022/01/29 03:28:42;;;;;;;112.80;72.07;;;;;;;;;;4978698;28;20078;-82
2022/01/29 03:31:08;;;;;;;107.47;71.97;;;;;;;;;;4991164;28;20078;-81
2022/01/29 03:33:33;;;;;;;106.30;71.77;;;;;;;;;;4977665;28;20030;-82
2022/01/29 03:35:58;;;;;;;117.77;69.93;;;;;;;;;;4982781;28;20022;-81
2022/01/29 03:38:24;;;;;;;136.63;78.77;;;;;;;;;;4998782;28;20027;-81
2022/01/29 03:40:50;;;;;;;120.53;73.78;;;;;;;;;;4995062;28;20038;-82
2022/01/29 03:43:24;;;;;;;131.48;79.05;;;;;;;;;;4995297;28;20223;-82
2022/01/29 03:45:50;;;;;;;121.20;72.80;;;;;;;;;;5006827;28;20110;-82
2022/01/29 03:48:15;;;;;;;117.57;73.70;;;;;;;;;;5011975;28;20031;-81
2022/01/29 03:50:40;;;;;;;117.90;73.10;;;;;;;;;;5011529;28;20018;-81
2022/01/29 03:53:05;;;;;;;119.50;75.30;;;;;;;;;;5009817;28;20019;-82
2022/01/29 03:55:30;;;;;;;128.13;75.00;;;;;;;;;;5006465;28;20057;-80
2022/01/29 03:57:56;;;;;;;118.27;73.33;;;;;;;;;;5010030;28;20022;-81
2022/01/29 04:00:21;;;;;;;122.83;74.40;;;;;;;;;;4980492;28;20053;-81
2022/01/29 04:02:46;;;;;;;130.83;76.40;;;;;;;;;;4995363;28;20050;-81
2022/01/29 04:05:11;;;;;;;115.07;72.80;;;;;;;;;;4999166;28;20030;-81
2022/01/29 04:07:36;;;;;;;116.67;70.67;;;;;;;;;;5001954;28;20015;-82
2022/01/29 04:10:02;;;;;;;117.80;72.97;;;;;;;;;;4996160;28;20057;-82
2022/01/29 04:12:31;;;;;;;119.45;76.55;;;;;;;;;;5009586;28;20485;-81
2022/01/29 04:14:58;;;;;;;114.93;73.45;;;;;;;;;;4996769;28;20107;-80
2022/01/29 04:17:23;;;;;;;120.55;75.55;;;;;;;;;;4974595;28;20011;-81
2022/01/29 04:19:48;;;;;;;111.90;72.27;;;;;;;;;;5000435;28;20127;-80
2022/01/29 04:22:14;;;;;;;116.50;71.93;;;;;;;;;;4984429;28;20126;-80
2022/01/29 04:24:39;;;;;;;112.97;72.53;;;;;;;;;;4995612;28;20663;-80
2022/01/29 04:27:14;;;;;;;100.30;67.30;;;;;;;;;;4978311;28;20390;-80
2022/01/29 04:29:51;;;;;;;109.28;72.18;;;;;;;;;;4998851;28;20018;-82
2022/01/29 04:32:20;;;;;;;111.22;73.05;;;;;;;;;;4997557;28;20070;-81
2022/01/29 04:34:45;;;;;;;111.00;70.95;;;;;;;;;;4994091;28;20029;-81
2022/01/29 04:37:10;;;;;;;104.77;72.40;;;;;;;;;;4971766;28;20051;-82
2022/01/29 04:39:35;;;;;;;106.60;68.77;;;;;;;;;;4981989;28;20035;-82
2022/01/29 04:42:01;;;;;;;105.37;72.60;;;;;;;;;;4964604;28;20027;-81
2022/01/29 04:44:26;;;;;;;102.63;70.27;;;;;;;;;;4994122;28;20106;-81
2022/01/29 04:46:51;;;;;;;108.57;69.37;;;;;;;;;;4992485;28;20078;-80
2022/01/29 04:49:16;;;;;;;94.80;69.30;;;;;;;;;;4978482;28;20033;-82
2022/01/29 04:51:41;;;;;;;97.47;67.47;;;;;;;;;;4995803;28;20022;-81
2022/01/29 04:54:06;;;;;;;96.57;68.53;;;;;;;;;;4978408;28;20034;-81
2022/01/29 04:56:34;;;;;;;103.13;67.93;;;;;;;;;;5013583;28;20018;-81
2022/01/29 04:58:59;;;;;;;105.53;69.38;;;;;;;;;;5014191;28;20073;-81
2022/01/29 05:01:24;;;;;;;103.37;70.67;;;;;;;;;;4982781;28;20508;-81
2022/01/29 05:03:49;;;;;;;107.07;71.83;;;;;;;;;;4975818;28;20027;-81
2022/01/29 05:06:14;;;;;;;96.18;67.88;;;;;;;;;;4973216;28;20037;-81
2022/01/29 05:08:40;;;;;;;103.70;69.38;;;;;;;;;;4989326;28;20026;-81
2022/01/29 05:11:06;;;;;;;112.07;73.13;;;;;;;;;;4996025;28;20547;-81
2022/01/29 05:13:33;;;;;;;;;;;;;;;;;;4996344;28;20023;-81
2022/01/29 05:26:54;;;;;;;107.97;73.25;;;;;;;;;;4979101;28;20041;-80
2022/01/29 05:29:19;;;;;;;92.00;67.57;;;;;;;;;;4998708;28;20023;-80
2022/01/29 05:31:44;;;;;;;101.27;65.73;;;;;;;;;;4985032;28;20030;-80
2022/01/29 05:34:10;;;;;;;101.50;68.70;;;;;;;;;;4990763;28;20023;-82
2022/01/29 05:36:35;;;;;;;95.07;66.13;;;;;;;;;;4987265;28;20375;-82
2022/01/29 05:39:00;;;;;;;97.07;68.67;;;;;;;;;;4975114;28;20022;-82
2022/01/29 05:41:28;;;;;;;103.67;71.23;;;;;;;;;;4992910;28;20034;-81
2022/01/29 05:43:53;;;;;;;101.93;67.30;;;;;;;;;;4989589;28;20018;-81
2022/01/29 05:46:18;;;;;;;88.43;63.37;;;;;;;;;;4974450;28;20026;-81
2022/01/29 05:48:44;;;;;;;95.77;69.67;;;;;;;;;;4993279;28;20023;-82
2022/01/29 05:51:09;;;;;;;89.73;63.70;;;;;;;;;;4993448;28;20026;-82
2022/01/29 05:53:34;;;;;;;100.07;68.73;;;;;;;;;;4990494;28;20031;-80
2022/01/29 05:56:00;;;;;;;91.67;65.80;;;;;;;;;;4989401;28;20018;-81
2022/01/29 05:58:25;;;;;;;95.73;67.77;;;;;;;;;;4992417;28;20015;-81
2022/01/29 06:00:51;;;;;;;84.97;63.67;;;;;;;;;;4992760;28;20782;-81
2022/01/29 06:03:16;;;;;;;124.37;74.83;;;;;;;;;;5020387;23;20023;-81
2022/01/29 06:05:41;;;;;;;88.80;64.40;;;;;;;;;;4989728;28;20015;-82
2022/01/29 06:08:06;;;;;;;86.97;64.73;;;;;;;;;;4977831;28;20039;-82
2022/01/29 06:10:32;;;;;;;82.90;64.13;;;;;;;;;;4960049;28;20099;-81
2022/01/29 06:12:58;;;;;;;81.43;62.92;;;;;;;;;;4976790;28;20104;-82
2022/01/29 06:15:25;;;;;;;81.20;63.45;;;;;;;;;;4974699;28;20028;-82
2022/01/29 06:17:50;;;;;;;;;;;;;;;;;;4977822;28;19995;-82
2022/01/29 06:20:15;;;;;;;76.28;62.75;;;;;;;;;;4976805;28;20034;-82
2022/01/29 06:22:41;;;;;;;84.07;62.70;;;;;;;;;;4972819;29;20030;-83
2022/01/29 06:25:06;;;;;;;87.17;62.93;;;;;;;;;;4958391;28;20016;-82
2022/01/29 06:27:32;;;;;;;91.57;64.17;;;;;;;;;;4962147;28;20016;-82
2022/01/29 06:29:57;;;;;;;93.00;66.20;;;;;;;;;;4963897;28;20030;-83
2022/01/29 06:32:22;;;;;;;82.17;62.40;;;;;;;;;;4986319;28;20019;-83
2022/01/29 06:34:47;;;;;;;84.87;65.53;;;;;;;;;;4973674;28;20102;-81
2022/01/29 06:37:12;;;;;;;78.70;63.13;;;;;;;;;;4967415;29;20082;-83
2022/01/29 06:39:37;;;;;;;100.32;67.78;;;;;;;;;;4959755;28;20027;-83
2022/01/29 06:42:03;;;;;;;86.77;63.93;;;;;;;;;;4967527;28;20280;-83
2022/01/29 06:44:28;;;;;;;90.03;64.83;;;;;;;;;;4959466;29;20526;-82
2022/01/29 06:46:53;;;;;;;96.85;65.40;;;;;;;;;;4957841;29;20039;-82
2022/01/29 06:49:18;;;;;;;87.03;62.83;;;;;;;;;;4952006;28;20262;-83
2022/01/29 06:51:44;;;;;;;85.80;65.57;;;;;;;;;;4956185;29;20487;-82
2022/01/29 06:54:09;;;;;;;99.20;67.03;;;;;;;;;;4963657;28;20053;-81
2022/01/29 06:56:34;;;;;;;90.57;64.70;;;;;;;;;;4962894;28;20019;-83
2022/01/29 06:58:59;;;;;;;105.57;71.70;;;;;;;;;;4961515;28;20023;-82
2022/01/29 07:01:24;;;;;;;93.33;64.60;;;;;;;;;;4980723;28;20053;-83
2022/01/29 07:03:50;;;;;;;97.57;67.40;;;;;;;;;;4966673;28;20094;-83
2022/01/29 07:06:15;;;;;;;100.93;67.00;;;;;;;;;;4949074;28;20037;-82
2022/01/29 07:08:40;;;;;;;95.33;63.73;;;;;;;;;;4971173;28;20224;-82
2022/01/29 07:11:05;;;;;;;90.33;63.70;;;;;;;;;;4960590;28;20510;-83
2022/01/29 07:13:31;;;;;;;95.67;68.23;;;;;;;;;;4959658;29;20027;-82
2022/01/29 07:15:56;;;;;;;91.90;65.43;;;;;;;;;;4958895;28;20034;-82
2022/01/29 07:18:21;;;;;;;89.53;65.53;;;;;;;;;;4962586;28;20038;-82
2022/01/29 07:20:48;;;;;;;90.50;64.40;;;;;;;;;;4960996;28;20348;-83
2022/01/29 07:23:13;;;;;;;89.13;65.28;;;;;;;;;;4960688;28;20122;-82
2022/01/29 07:25:38;;;;;;;88.83;64.50;;;;;;;;;;4960955;29;20042;-84
2022/01/29 07:28:03;;;;;;;87.60;63.40;;;;;;;;;;4960792;28;20041;-83
2022/01/29 07:30:29;;;;;;;92.13;65.97;;;;;;;;;;4961540;29;20397;-83
2022/01/29 07:32:54;;;;;;;93.63;64.33;;;;;;;;;;4962322;29;20447;-83
2022/01/29 07:35:19;;;;;;;79.13;62.47;;;;;;;;;;4960233;29;20034;-83
2022/01/29 07:37:44;;;;;;;80.10;62.43;;;;;;;;;;4972609;29;20023;-83
2022/01/29 07:40:09;;;;;;;78.47;61.83;;;;;;;;;;4969269;28;20030;-83
2022/01/29 07:42:35;;;;;;;80.37;61.57;;;;;;;;;;4965400;29;20015;-83
2022/01/29 07:45:00;;;;;;;74.70;62.63;;;;;;;;;;4962321;28;20091;-83
2022/01/29 07:47:26;;;;;;;81.57;62.17;;;;;;;;;;4959789;29;20159;-84
2022/01/29 07:49:51;;;;;;;74.37;59.80;;;;;;;;;;4962296;28;20019;-85
2022/01/29 07:52:16;;;;;;;78.40;61.23;;;;;;;;;;4964095;29;20031;-83
2022/01/29 07:54:41;;;;;;;77.47;62.07;;;;;;;;;;4959943;28;20015;-82
2022/01/29 07:57:06;;;;;;;76.13;61.27;;;;;;;;;;4967409;28;20078;-83
2022/01/29 07:59:32;;;;;;;68.73;59.60;;;;;;;;;;4969789;28;20023;-82
2022/01/29 08:01:57;;;;;;;76.30;59.50;;;;;;;;;;4961934;29;20054;-83
2022/01/29 08:04:24;;;;;;;77.53;61.03;;;;;;;;;;4960123;29;20430;-85
2022/01/29 08:06:49;;;;;;;71.40;58.22;;;;;;;;;;4965851;28;20015;-83
2022/01/29 08:09:14;;;;;;;69.67;57.63;;;;;;;;;;4962905;28;20050;-84
2022/01/29 08:11:40;;;;;;;69.43;58.37;;;;;;;;;;4960506;28;20023;-84
2022/01/29 08:14:05;;;;;;;69.60;57.93;;;;;;;;;;4963974;28;20166;-84
2022/01/29 08:16:30;;;;;;;67.67;57.37;;;;;;;;;;4962271;28;20027;-82
2022/01/29 08:18:56;;;;;;;70.83;58.27;;;;;;;;;;4963566;29;20110;-83
2022/01/29 08:21:22;;;;;;;67.95;58.00;;;;;;;;;;4963026;29;20023;-83
2022/01/29 08:23:47;;;;;;;67.87;56.97;;;;;;;;;;4964576;28;20066;-83
2022/01/29 08:26:12;;;;;;;70.00;58.03;;;;;;;;;;4964489;28;20010;-83
2022/01/29 08:28:40;;;;;;;65.30;56.27;;;;;;;;;;4961272;29;20030;-83
2022/01/29 08:31:09;;;;;;;69.07;57.85;;;;;;;;;;4959202;28;20042;-83
2022/01/29 08:33:34;;;;;;;64.90;56.92;;;;;;;;;;4961533;28;20026;-83
2022/01/29 08:36:00;;;;;;;67.37;56.33;;;;;;;;;;4962108;29;20027;-82
2022/01/29 08:38:25;;;;;;;70.57;58.43;;;;;;;;;;4962947;28;20454;-83
2022/01/29 08:40:52;;;;;;;64.78;56.38;;;;;;;;;;4979599;28;20288;-83
2022/01/29 08:43:17;;;;;;;64.07;55.47;;;;;;;;;;4981264;28;20038;-83
2022/01/29 08:45:43;;;;;;;66.30;57.67;;;;;;;;;;4973935;28;20023;-84
2022/01/29 08:48:08;;;;;;;62.57;54.90;;;;;;;;;;4974052;28;20050;-83
2022/01/29 08:50:36;;;;;;;62.87;56.00;;;;;;;;;;4970923;28;20072;-85
2022/01/29 08:53:02;;;;;;;62.53;55.42;;;;;;;;;;4969619;28;20022;-84
2022/01/29 08:55:27;;;;;;;61.43;54.93;;;;;;;;;;4967317;28;20263;-85
2022/01/29 08:57:52;;;;;;;63.03;56.13;;;;;;;;;;4967883;28;20035;-83
2022/01/29 09:00:18;;;;;;;63.23;55.57;;;;;;;;;;4974104;29;20042;-83
2022/01/29 09:02:43;;;;;;;66.57;57.40;;;;;;;;;;4974508;29;20019;-84
2022/01/29 09:05:10;;;;;;;68.83;55.60;;;;;;;;;;4972842;28;20035;-84
2022/01/29 09:07:38;;;;;;;63.78;55.05;;;;;;;;;;4975074;28;20041;-84
2022/01/29 09:10:04;;;;;;;65.88;57.63;;;;;;;;;;4977560;28;20026;-84
2022/01/29 09:12:30;;;;;;;68.23;56.93;;;;;;;;;;4976010;29;20031;-83
2022/01/29 09:14:55;;;;;;;65.03;56.55;;;;;;;;;;4973379;28;20027;-82
2022/01/29 09:17:20;;;;;;;64.87;56.10;;;;;;;;;;4975498;28;20081;-82
2022/01/29 09:19:48;;;;;;;61.57;54.90;;;;;;;;;;4978845;28;20523;-83
2022/01/29 09:22:14;;;;;;;62.95;55.47;;;;;;;;;;4976066;29;20019;-84
2022/01/29 09:24:39;;;;;;;66.57;56.13;;;;;;;;;;4971793;28;20034;-85
2022/01/29 09:27:05;;;;;;;61.50;54.83;;;;;;;;;;4974687;28;20067;-84
2022/01/29 09:29:35;;;;;;;62.93;54.93;;;;;;;;;;4976132;28;20552;-84
2022/01/29 09:32:02;;;;;;;64.05;56.72;;;;;;;;;;4984618;28;20015;-84
2022/01/29 09:34:27;;;;;;;68.35;56.42;;;;;;;;;;4986471;28;20031;-83
2022/01/29 09:36:52;;;;;;;62.73;55.50;;;;;;;;;;4964494;28;20037;-84
2022/01/29 09:39:17;;;;;;;62.07;55.43;;;;;;;;;;4972326;28;20039;-85
2022/01/29 09:41:44;;;;;;;60.07;54.03;;;;;;;;;;4965055;29;20034;-84
2022/01/29 09:44:09;;;;;;;69.72;57.83;;;;;;;;;;4963708;28;20178;-84
2022/01/29 09:46:35;;;;;;;61.30;54.67;;;;;;;;;;4963107;29;20063;-84
2022/01/29 09:49:00;;;;;;;61.85;54.65;;;;;;;;;;4971481;28;20019;-84
2022/01/29 09:51:27;;;;;;;60.13;53.70;;;;;;;;;;4980177;28;20035;-83
2022/01/29 09:53:52;;;;;;;65.20;56.45;;;;;;;;;;4974342;28;20030;-83
2022/01/29 09:56:17;;;;;;;61.83;55.17;;;;;;;;;;4958662;28;20039;-84
2022/01/29 09:58:45;;;;;;;59.90;53.60;;;;;;;;;;4964686;28;20031;-83
2022/01/29 10:01:11;;;;;;;60.03;53.80;;;;;;;;;;4963463;29;20034;-84
2022/01/29 10:03:36;;;;;;;61.33;54.87;;;;;;;;;;4963092;28;20027;-83
2022/01/29 10:06:03;;;;;;;62.73;54.47;;;;;;;;;;4963353;28;20479;-84
2022/01/29 10:08:28;;;;;;;58.88;52.78;;;;;;;;;;4963398;28;20099;-83
2022/01/29 10:10:59;;;;;;;61.00;54.55;;;;;;;;;;4962801;28;20039;-85
2022/01/29 10:13:25;;;;;;;58.97;52.97;;;;;;;;;;4963303;28;20054;-84
2022/01/29 10:15:52;;;;;;;60.85;54.45;;;;;;;;;;4964884;28;20023;-84
2022/01/29 10:18:21;;;;;;;59.70;53.53;;;;;;;;;;4955293;28;20027;-84
2022/01/29 10:20:46;;;;;;;59.25;53.15;;;;;;;;;;4945348;29;20448;-85
2022/01/29 10:23:11;;;;;;;60.07;53.90;;;;;;;;;;4953003;29;20020;-83
2022/01/29 10:25:41;;;;;;;59.33;53.17;;;;;;;;;;4958537;29;20019;-84
2022/01/29 10:28:06;;;;;;;58.50;52.65;;;;;;;;;;4964969;28;20034;-83
2022/01/29 10:30:33;;;;;;;58.50;52.77;;;;;;;;;;4966162;28;20027;-84
2022/01/29 10:33:18;;;;;;;59.90;53.40;;;;;;;;;;4980560;28;20527;-84
2022/01/29 10:35:44;;;;;;;59.05;52.88;;;;;;;;;;4970511;28;20078;-84
2022/01/29 10:38:09;;;;;;;57.80;52.10;;;;;;;;;;4970329;28;20034;-83
2022/01/29 10:40:35;;;;;;;58.33;52.63;;;;;;;;;;4971082;28;20023;-83
2022/01/29 10:43:06;;;;;;;59.37;53.47;;;;;;;;;;4972861;28;20023;-83
2022/01/29 10:45:35;;;;;;;59.03;52.85;;;;;;;;;;4963317;29;20038;-84
2022/01/29 10:48:01;;;;;;;59.55;53.33;;;;;;;;;;4964966;28;20542;-84
2022/01/29 10:50:27;;;;;;;58.60;52.50;;;;;;;;;;4965228;29;20019;-84
2022/01/29 10:52:52;;;;;;;59.58;53.25;;;;;;;;;;4962195;29;20027;-84
2022/01/29 10:55:18;;;;;;;59.83;53.60;;;;;;;;;;4968337;28;20181;-83
2022/01/29 10:57:44;;;;;;;58.30;52.43;;;;;;;;;;4961555;28;20383;-83
2022/01/29 11:00:18;;;;;;;58.78;52.83;;;;;;;;;;4961378;28;20023;-84
2022/01/29 11:02:44;;;;;;;60.15;53.83;;;;;;;;;;4961456;29;20045;-84
2022/01/29 11:05:09;;;;;;;58.65;52.75;;;;;;;;;;4961285;29;20034;-84
2022/01/29 11:07:35;;;;;;;58.72;52.75;;;;;;;;;;4965171;28;20418;-84
2022/01/29 11:10:02;;;;;;;58.47;52.38;;;;;;;;;;4961969;29;20517;-84
2022/01/29 11:12:28;;;;;;;60.83;54.50;;;;;;;;;;4961970;29;20563;-83
2022/01/29 11:14:55;;;;;;;58.73;52.80;;;;;;;;;;4956147;28;20020;-83
2022/01/29 11:17:20;;;;;;;;;;;;;;;;;;4969289;29;20781;-84
2022/01/29 11:19:46;;;;;;;58.97;53.03;;;;;;;;;;4968405;28;19906;-85
2022/01/29 11:22:12;;;;;;;59.05;53.13;;;;;;;;;;4963279;28;20304;-84
2022/01/29 11:24:38;;;;;;;60.13;53.88;;;;;;;;;;4958624;28;20051;-84
2022/01/29 11:27:20;;;;;;;59.63;53.03;;;;;;;;;;4965126;28;20018;-83
2022/01/29 11:29:56;;;;;;;58.00;52.13;;;;;;;;;;4992493;28;20023;-83
2022/01/29 11:32:26;;;;;;;58.42;52.58;;;;;;;;;;4961965;29;20398;-84
2022/01/29 11:35:12;;;;;;;58.63;52.85;;;;;;;;;;4961572;28;20039;-83
2022/01/29 11:37:42;;;;;;;62.97;54.45;;;;;;;;;;4958279;29;20030;-85
2022/01/29 11:40:18;;;;;;;59.03;53.13;;;;;;;;;;4973180;28;20034;-84
2022/01/29 11:43:06;;;;;;;67.40;56.97;;;;;;;;;;4981611;28;20030;-85
2022/01/29 11:45:33;;;;;;;60.75;54.28;;;;;;;;;;4979039;28;20058;-84
2022/01/29 11:47:58;;;;;;;61.08;54.97;;;;;;;;;;4975781;28;20023;-84
2022/01/29 11:50:26;;;;;;;61.87;54.00;;;;;;;;;;4975242;29;20051;-85
2022/01/29 11:52:54;;;;;;;61.05;54.35;;;;;;;;;;4987544;28;20062;-85
2022/01/29 11:55:31;;;;;;;65.00;54.53;;;;;;;;;;4972802;28;20031;-84
2022/01/29 11:58:16;;;;;;;61.05;54.53;;;;;;;;;;4972298;28;20091;-84
2022/01/29 12:00:42;;;;;;;59.58;53.58;;;;;;;;;;4981936;28;20549;-84
2022/01/29 12:03:28;;;;;;;61.15;54.65;;;;;;;;;;4969762;28;20110;-85
2022/01/29 12:06:17;;;;;;;78.20;60.65;;;;;;;;;;4984944;23;21185;-87
2022/01/29 12:09:04;;;;;;;60.45;53.90;;;;;;;;;;5009797;28;20015;-87
2022/01/29 12:11:30;;;;;;;61.00;54.63;;;;;;;;;;4985641;28;20015;-84
2022/01/29 12:14:14;;;;;;;60.90;54.30;;;;;;;;;;4981933;28;20055;-86
2022/01/29 12:16:47;;;;;;;62.72;55.50;;;;;;;;;;4979298;28;20094;-86
2022/01/29 12:19:32;;;;;;;62.05;54.03;;;;;;;;;;4978445;28;20494;-85
2022/01/29 12:21:57;;;;;;;59.17;53.05;;;;;;;;;;4965244;28;20039;-85
2022/01/29 12:24:22;;;;;;;60.63;54.13;;;;;;;;;;4978597;28;20049;-86
2022/01/29 12:26:57;;;;;;;60.30;53.90;;;;;;;;;;4979376;28;20026;-85
2022/01/29 12:29:22;;;;;;;60.95;54.08;;;;;;;;;;4979516;28;20105;-86
2022/01/29 12:31:49;;;;;;;59.20;53.20;;;;;;;;;;4987249;28;20022;-86
2022/01/29 12:34:14;;;;;;;61.38;55.05;;;;;;;;;;4987300;28;20042;-84
2022/01/29 12:36:40;;;;;;;65.20;55.10;;;;;;;;;;4987455;28;20057;-86
2022/01/29 12:39:09;;;;;;;59.30;53.10;;;;;;;;;;4985994;28;20118;-86
2022/01/29 12:41:38;;;;;;;60.30;54.08;;;;;;;;;;4977473;28;20015;-85
2022/01/29 12:44:08;;;;;;;60.05;53.75;;;;;;;;;;4981658;28;20109;-86
2022/01/29 12:46:34;;;;;;;61.63;54.65;;;;;;;;;;4987264;28;20454;-86
2022/01/29 12:49:07;;;;;;;60.17;53.70;;;;;;;;;;4995087;28;20011;-87
2022/01/29 12:51:36;;;;;;;58.88;53.05;;;;;;;;;;4983705;28;20507;-85
2022/01/29 12:54:03;;;;;;;58.50;52.63;;;;;;;;;;4976800;28;20561;-86
2022/01/29 12:56:32;;;;;;;58.97;52.97;;;;;;;;;;4984825;28;20193;-85
2022/01/29 12:58:59;;;;;;;59.22;52.88;;;;;;;;;;4980687;28;20038;-86
2022/01/29 13:01:24;;;;;;;61.05;54.47;;;;;;;;;;4985949;28;20027;-84
2022/01/29 13:03:50;;;;;;;58.87;52.87;;;;;;;;;;4985608;28;20461;-84
2022/01/29 13:06:16;;;;;;;58.67;52.77;;;;;;;;;;4984731;28;20031;-85
2022/01/29 13:08:41;;;;;;;57.80;52.00;;;;;;;;;;4990104;28;20021;-86
2022/01/29 13:11:39;;;;;;;60.03;53.77;;;;;;;;;;4998308;28;20019;-86
2022/01/29 13:14:18;;;;;;;59.92;53.75;;;;;;;;;;4977227;28;20272;-87
2022/01/29 13:16:44;;;;;;;58.58;52.65;;;;;;;;;;4995866;28;20039;-87
2022/01/29 13:19:09;;;;;;;59.38;53.15;;;;;;;;;;4983706;28;20019;-85
2022/01/29 13:21:35;;;;;;;57.67;51.67;;;;;;;;;;4981281;28;20049;-85
2022/01/29 13:24:01;;;;;;;58.13;52.13;;;;;;;;;;4983113;28;20019;-86
2022/01/29 13:26:30;;;;;;;60.13;53.75;;;;;;;;;;4983805;28;20023;-85
2022/01/29 13:28:59;;;;;;;56.80;51.28;;;;;;;;;;4982766;28;20015;-86
2022/01/29 13:31:25;;;;;;;58.42;52.28;;;;;;;;;;4978321;28;20054;-85
2022/01/29 13:33:50;;;;;;;57.47;51.07;;;;;;;;;;4983946;28;20034;-86
2022/01/29 13:36:29;;;;;;;61.53;52.67;;;;;;;;;;4982930;28;20104;-86
2022/01/29 13:39:06;;;;;;;57.42;51.58;;;;;;;;;;5002668;28;20015;-85
2022/01/29 13:41:32;;;;;;;58.60;52.42;;;;;;;;;;4976762;28;20023;-86
2022/01/29 13:44:06;;;;;;;57.42;51.78;;;;;;;;;;4972866;28;20435;-86
2022/01/29 13:46:31;;;;;;;57.80;51.80;;;;;;;;;;4981858;28;20034;-84
2022/01/29 13:48:58;;;;;;;57.23;51.57;;;;;;;;;;4975483;28;20495;-85
2022/01/29 13:51:27;;;;;;;57.22;51.50;;;;;;;;;;4982016;28;20018;-85
2022/01/29 13:53:55;;;;;;;58.47;52.40;;;;;;;;;;4980560;28;20035;-85
2022/01/29 13:56:20;;;;;;;57.80;51.88;;;;;;;;;;4979727;28;20049;-86
2022/01/29 13:58:54;;;;;;;56.57;51.07;;;;;;;;;;4975370;28;20558;-86
2022/01/29 14:01:33;;;;;;;58.03;51.92;;;;;;;;;;4969470;28;20106;-86
2022/01/29 14:03:58;;;;;;;58.20;52.10;;;;;;;;;;4961689;29;20051;-86
2022/01/29 14:06:46;;;;;;;57.97;51.73;;;;;;;;;;4974344;28;20038;-86
2022/01/29 14:09:14;;;;;;;56.05;50.35;;;;;;;;;;4989076;28;20018;-85
2022/01/29 14:12:02;;;;;;;56.08;50.60;;;;;;;;;;4983285;28;20011;-85
2022/01/29 14:14:29;;;;;;;57.90;51.97;;;;;;;;;;5015320;23;20051;-83
2022/01/29 14:16:55;;;;;;;58.05;51.85;;;;;;;;;;4988430;28;20031;-82
2022/01/29 14:19:21;;;;;;;57.92;51.78;;;;;;;;;;4987974;28;20058;-82
2022/01/29 14:21:48;;;;;;;59.42;53.17;;;;;;;;;;4988343;28;20515;-83
2022/01/29 14:24:14;;;;;;;56.85;51.38;;;;;;;;;;4989281;28;20018;-84
2022/01/29 14:26:39;;;;;;;60.03;53.55;;;;;;;;;;4987346;28;20033;-82